Time;durP1;ratioP1;P1;durP2;ratioP2;P2;SDS_P1;SDS_P2;PMS_P1;PMS_P2;Temp;Humidity;BMP_temperature;BMP_pressure;BME280_temperature;BME280_humidity;BME280_pressure;Samples;Min_cycle;Max_cycle;Signal;HPM_P1;HPM_P2
2021/12/13 00:01:17;;;;;;;23.33;13.57;;;;;;;1.75;85.80;100075.73;1776520;79;20859;-56
2021/12/13 00:03:56;;;;;;;18.07;10.87;;;;;;;1.74;85.87;100088.12;1778131;79;20941;-56
2021/12/13 00:06:27;;;;;;;17.97;10.70;;;;;;;1.75;85.88;100078.38;1773871;79;20965;-55
2021/12/13 00:08:56;;;;;;;15.80;10.60;;;;;;;1.80;85.90;100085.85;1809156;78;20891;-56
2021/12/13 00:11:27;;;;;;;16.27;11.10;;;;;;;1.81;85.91;100085.84;1808793;77;21122;-57
2021/12/13 00:14:02;;;;;;;16.60;11.27;;;;;;;1.85;85.84;100084.95;1760767;80;21082;-57
2021/12/13 00:16:32;;;;;;;18.57;11.48;;;;;;;1.86;85.83;100084.06;1779915;79;21025;-56
2021/12/13 00:19:07;;;;;;;23.13;12.07;;;;;;;1.84;85.59;100071.23;1780099;80;21029;-56
2021/12/13 00:21:38;;;;;;;18.87;10.80;;;;;;;1.82;85.56;100074.78;1780759;79;20871;-56
2021/12/13 00:24:20;;;;;;;14.67;9.90;;;;;;;1.83;85.54;100071.24;1779339;79;21474;-56
2021/12/13 00:26:49;;;;;;;14.43;8.27;;;;;;;1.84;85.51;100068.58;1779625;79;20951;-55
2021/12/13 00:29:20;;;;;;;12.37;8.20;;;;;;;1.86;85.55;100069.45;1780496;80;21347;-55
2021/12/13 00:32:06;;;;;;;16.57;9.77;;;;;;;1.88;85.51;100064.11;1779120;79;21654;-56
2021/12/13 00:34:41;;;;;;;19.07;10.47;;;;;;;1.87;85.40;100063.70;1772658;79;22192;-56
2021/12/13 00:37:18;;;;;;;20.37;11.43;;;;;;;1.86;85.36;100059.28;1776176;79;21525;-57
2021/12/13 00:40:01;;;;;;;18.87;12.20;;;;;;;1.85;85.40;100054.86;1780283;79;21366;-55
2021/12/13 00:42:40;;;;;;;18.07;10.53;;;;;;;1.84;85.34;100057.08;1777405;79;21006;-53
2021/12/13 00:45:09;;;;;;;16.47;10.57;;;;;;;1.84;85.26;100052.66;1771786;79;21088;-55
2021/12/13 00:47:37;;;;;;;16.63;9.40;;;;;;;1.83;85.32;100055.31;1778524;79;20978;-55
2021/12/13 00:50:24;;;;;;;12.77;8.93;;;;;;;1.84;85.37;100043.81;1775064;79;21092;-57
2021/12/13 00:52:51;;;;;;;17.20;10.47;;;;;;;1.86;85.44;100050.87;1773737;79;21136;-54
2021/12/13 00:55:28;;;;;;;20.73;13.60;;;;;;;1.89;85.35;100049.50;1777141;79;20966;-54
2021/12/13 00:58:14;;;;;;;17.47;10.57;;;;;;;1.89;85.33;100052.60;1781709;79;21255;-57
2021/12/13 01:00:54;;;;;;;19.17;11.83;;;;;;;1.88;85.28;100059.69;1761799;79;21100;-57
2021/12/13 01:03:29;;;;;;;19.90;10.77;;;;;;;1.87;85.29;100062.38;1775427;79;22024;-57
2021/12/13 01:06:50;;;;;;;22.37;11.53;;;;;;;1.87;85.25;100057.07;1776385;79;21104;-56
2021/12/13 01:10:14;;;;;;;18.17;10.83;;;;;;;1.85;85.25;100053.09;1779464;79;21052;-56
2021/12/13 01:12:40;;;;;;;20.17;11.27;;;;;;;1.80;85.19;100048.25;1776213;79;21025;-55
2021/12/13 01:15:14;;;;;;;17.73;9.70;;;;;;;1.79;85.27;100027.02;1780434;79;21120;-56
2021/12/13 01:18:16;;;;;;;23.55;13.72;;;;;;;1.79;85.36;100020.39;1778637;79;24849;-57
2021/12/13 01:20:55;;;;;;;19.93;11.53;;;;;;;1.79;85.39;100011.98;1778359;79;20985;-58
2021/12/13 01:23:17;;;;;;;23.13;13.50;;;;;;;1.80;85.47;100006.23;1775172;79;20973;-56
2021/12/13 01:26:13;;;;;;;24.17;14.10;;;;;;;1.79;85.48;100005.80;1776649;79;20898;-56
2021/12/13 01:28:38;;;;;;;28.47;15.83;;;;;;;1.79;85.50;100007.12;1778421;79;20894;-56
2021/12/13 01:31:19;;;;;;;25.83;14.50;;;;;;;1.77;85.43;100010.26;1778407;79;21080;-56
2021/12/13 01:33:49;;;;;;;23.83;13.30;;;;;;;1.76;85.50;100027.95;1776422;79;21543;-57
2021/12/13 01:36:23;;;;;;;20.83;13.10;;;;;;;1.77;85.61;100037.69;1704414;79;21001;-56
2021/12/13 01:38:56;;;;;;;22.50;12.40;;;;;;;1.80;85.71;100033.66;1778327;79;20967;-57
2021/12/13 01:41:33;;;;;;;24.23;14.07;;;;;;;1.82;85.65;100017.27;1776612;79;20977;-58
2021/12/13 01:44:08;;;;;;;24.67;15.30;;;;;;;1.84;85.70;100007.98;1779784;79;21578;-55
2021/12/13 01:46:41;;;;;;;26.90;17.07;;;;;;;1.86;85.76;100007.08;1779241;79;20961;-55
2021/12/13 01:49:08;;;;;;;32.33;16.80;;;;;;;1.88;85.74;100003.05;1776782;79;20974;-55
2021/12/13 01:51:35;;;;;;;29.37;17.80;;;;;;;1.90;85.72;99998.63;1778350;79;20926;-58
2021/12/13 01:54:16;;;;;;;29.97;17.23;;;;;;;1.89;85.72;100004.38;1780378;79;20906;-56
2021/12/13 01:56:55;;;;;;;28.13;15.90;;;;;;;1.89;85.70;100008.36;1777962;79;21233;-57
2021/12/13 02:02:29;;;;;;;26.13;15.17;;;;;;;1.84;85.71;100015.50;1776542;79;21812;-57
2021/12/13 02:05:13;;;;;;;32.73;16.80;;;;;;;1.83;85.75;100025.67;1778662;79;21757;-56
2021/12/13 02:07:48;;;;;;;24.50;14.97;;;;;;;1.83;85.89;100012.41;1763193;79;20949;-57
2021/12/13 02:10:23;;;;;;;27.17;16.57;;;;;;;1.87;85.96;100027.88;1780534;79;21372;-57
2021/12/13 02:12:57;;;;;;;31.83;16.73;;;;;;;1.89;86.00;100031.36;1780310;79;20985;-55
2021/12/13 02:18:07;;;;;;;31.33;17.60;;;;;;;1.93;86.03;100026.92;1780199;79;21361;-57
2021/12/13 02:20:39;;;;;;;32.17;19.07;;;;;;;1.91;85.99;100017.64;1809509;78;20855;-57
2021/12/13 02:23:05;;;;;;;32.17;16.87;;;;;;;1.90;86.00;100019.86;1805357;77;21638;-56
2021/12/13 02:25:41;;;;;;;31.77;16.87;;;;;;;1.93;86.01;100025.59;1802163;77;21314;-55
2021/12/13 02:28:12;;;;;;;29.00;16.33;;;;;;;1.93;85.96;100015.86;1803554;78;21376;-56
2021/12/13 02:31:01;;;;;;;32.57;16.90;;;;;;;1.93;86.01;100019.84;1810355;78;20929;-55
2021/12/13 02:33:39;;;;;;;28.17;18.20;;;;;;;1.96;86.11;100024.25;1805039;77;21041;-57
2021/12/13 02:36:10;;;;;;;33.03;17.80;;;;;;;1.99;86.12;100019.77;1775942;79;21803;-56
2021/12/13 02:38:37;;;;;;;32.50;20.33;;;;;;;2.01;86.18;100025.95;1775330;80;22130;-57
2021/12/13 02:41:05;;;;;;;34.77;19.40;;;;;;;2.04;86.21;100021.08;1783893;78;21409;-57
2021/12/13 02:43:37;;;;;;;33.73;19.30;;;;;;;2.03;86.09;100028.16;1805303;77;20918;-57
2021/12/13 02:46:03;;;;;;;35.23;18.57;;;;;;;2.01;86.08;100023.30;1782628;78;21403;-56
2021/12/13 02:48:48;;;;;;;31.50;19.07;;;;;;;2.00;86.09;100022.87;1761038;80;20919;-57
2021/12/13 02:51:20;;;;;;;35.37;17.73;;;;;;;2.00;86.07;100018.88;1788838;79;21033;-57
2021/12/13 02:54:14;;;;;;;30.07;17.63;;;;;;;2.01;86.10;100021.98;1785549;79;20910;-57
2021/12/13 02:56:45;;;;;;;30.30;18.57;;;;;;;2.01;86.13;100015.34;1806066;78;20898;-57
2021/12/13 02:59:13;;;;;;;28.87;16.50;;;;;;;2.03;86.23;100016.21;1760519;80;21545;-58
2021/12/13 03:01:50;;;;;;;34.60;18.13;;;;;;;2.07;86.29;100015.72;1764407;80;21133;-57
2021/12/13 03:04:20;;;;;;;29.97;16.30;;;;;;;2.09;86.27;100013.48;1771791;79;20953;-58
2021/12/13 03:07:10;;;;;;;36.93;19.03;;;;;;;2.09;86.24;100008.62;1779337;79;20932;-56
2021/12/13 03:09:38;;;;;;;38.10;20.60;;;;;;;2.06;86.27;99991.38;1756604;80;21097;-56
2021/12/13 03:12:08;;;;;;;37.07;20.07;;;;;;;2.04;86.25;99989.22;1779943;79;21514;-56
2021/12/13 03:14:41;;;;;;;34.97;18.83;;;;;;;2.03;86.28;99990.98;1783063;79;21744;-57
2021/12/13 03:17:21;;;;;;;36.47;18.97;;;;;;;2.03;86.25;99983.02;1779117;79;21057;-57
2021/12/13 03:20:04;;;;;;;31.73;17.70;;;;;;;2.01;86.30;99983.48;1784976;78;22119;-57
2021/12/13 03:22:53;;;;;;;30.43;17.73;;;;;;;2.02;86.41;99985.24;1757769;79;22146;-56
2021/12/13 03:26:00;;;;;;;33.70;17.53;;;;;;;2.03;86.44;99976.39;1762297;79;21088;-56
2021/12/13 03:29:18;;;;;;;34.80;18.97;;;;;;;2.06;86.45;99966.16;1759328;79;21146;-55
2021/12/13 03:31:54;;;;;;;34.07;19.40;;;;;;;2.04;86.47;99963.51;1760779;79;21073;-56
2021/12/13 03:34:30;;;;;;;41.23;23.07;;;;;;;2.03;86.56;99960.45;1763639;79;21510;-56
2021/12/13 03:37:10;;;;;;;44.37;22.73;;;;;;;2.02;86.56;99957.36;1762769;79;21722;-56
2021/12/13 03:39:46;;;;;;;35.87;20.83;;;;;;;2.00;86.56;99961.80;1761610;79;20984;-56
2021/12/13 03:42:18;;;;;;;37.73;20.73;;;;;;;1.97;86.52;99971.11;1764420;79;21582;-56
2021/12/13 03:44:48;;;;;;;35.50;20.30;;;;;;;1.95;86.58;99968.95;1760701;79;21443;-56
2021/12/13 03:47:28;;;;;;;38.13;20.50;;;;;;;1.94;86.64;99968.52;1764854;79;20899;-55
2021/12/13 03:49:58;;;;;;;35.73;19.80;;;;;;;1.96;86.75;99962.71;1759432;79;21050;-56
2021/12/13 03:52:28;;;;;;;35.23;18.83;;;;;;;1.97;86.78;99952.98;1759403;79;21342;-56
2021/12/13 03:54:56;;;;;;;36.87;20.93;;;;;;;1.97;86.88;99947.22;1760734;79;21080;-56
2021/12/13 03:57:22;;;;;;;37.60;21.93;;;;;;;2.02;86.89;99943.20;1762342;79;21391;-56
2021/12/13 03:59:49;;;;;;;43.77;22.90;;;;;;;2.02;86.84;99940.55;1759565;79;21428;-55
2021/12/13 04:02:26;;;;;;;44.23;23.60;;;;;;;2.00;86.79;99940.56;1760535;79;21084;-56
2021/12/13 04:05:00;;;;;;;42.37;23.17;;;;;;;1.95;86.70;99944.17;1754150;79;21374;-56
2021/12/13 04:07:30;;;;;;;53.97;23.93;;;;;;;1.89;86.71;99938.02;1755759;80;21617;-56
2021/12/13 04:09:59;;;;;;;42.97;21.57;;;;;;;1.87;86.83;99937.14;1757598;80;21714;-56
2021/12/13 04:12:35;;;;;;;41.43;23.00;;;;;;;1.87;86.99;99936.30;1753338;79;21050;-56
2021/12/13 04:15:02;;;;;;;44.13;25.10;;;;;;;1.88;87.04;99948.64;1756206;80;21049;-57
2021/12/13 04:17:56;;;;;;;42.57;21.77;;;;;;;1.90;87.00;99958.80;1757207;80;21602;-57
2021/12/13 04:20:27;;;;;;;47.90;23.53;;;;;;;1.87;87.01;99961.52;1755781;80;21478;-57
2021/12/13 04:22:59;;;;;;;43.53;23.67;;;;;;;1.89;87.12;99970.31;1725771;82;20948;-57
2021/12/13 04:25:32;;;;;;;45.37;23.80;;;;;;;1.92;87.12;99961.00;1728919;82;20878;-56
2021/12/13 04:28:16;;;;;;;46.60;25.60;;;;;;;1.93;87.14;99968.52;1798493;79;20918;-56
2021/12/13 04:30:51;;;;;;;50.23;28.27;;;;;;;1.94;87.16;99975.59;1797093;79;20962;-56
2021/12/13 04:33:26;;;;;;;;;;;;;;;1.92;87.12;99978.26;1797339;79;21144;-57
2021/12/13 04:35:56;;;;;;;52.15;24.05;;;;;;;1.90;87.05;99981.37;1792248;79;20132;-57
2021/12/13 04:38:33;;;;;;;39.97;21.97;;;;;;;1.86;87.10;99977.88;1793689;79;21377;-56
2021/12/13 04:41:00;;;;;;;42.07;22.40;;;;;;;1.87;87.20;99970.80;1796138;77;21528;-56
2021/12/13 04:43:26;;;;;;;48.30;24.33;;;;;;;1.88;87.28;99968.10;1794459;79;21253;-56
2021/12/13 04:45:58;;;;;;;44.30;23.13;;;;;;;1.90;87.32;99967.65;1796555;79;21662;-57
2021/12/13 04:48:30;;;;;;;46.47;24.87;;;;;;;1.94;87.38;99965.86;1796196;79;21289;-56
2021/12/13 04:51:08;;;;;;;41.57;22.90;;;;;;;1.96;87.38;99972.00;1791406;77;21619;-57
2021/12/13 04:53:45;;;;;;;44.07;24.43;;;;;;;1.95;87.37;99970.27;1790532;79;20957;-57
2021/12/13 04:56:15;;;;;;;49.23;27.67;;;;;;;1.96;87.39;99980.45;1794859;79;20924;-56
2021/12/13 04:58:44;;;;;;;45.00;25.27;;;;;;;1.95;87.30;99978.69;1791680;79;21549;-56
2021/12/13 05:01:12;;;;;;;48.27;25.77;;;;;;;1.93;87.31;99982.67;1794131;79;21430;-56
2021/12/13 05:03:43;;;;;;;44.43;25.03;;;;;;;1.92;87.32;99978.70;1794324;78;20855;-56
2021/12/13 05:06:19;;;;;;;50.70;27.67;;;;;;;1.92;87.34;99980.03;1774956;79;20965;-56
2021/12/13 05:08:49;;;;;;;50.37;26.57;;;;;;;1.92;87.40;99993.30;1803466;77;20855;-56
2021/12/13 05:11:15;;;;;;;49.40;24.33;;;;;;;1.95;87.51;99986.20;1779209;78;20888;-57
2021/12/13 05:13:53;;;;;;;45.40;24.23;;;;;;;1.99;87.52;99984.38;1779389;79;21388;-56
2021/12/13 05:16:52;;;;;;;53.70;26.23;;;;;;;2.02;87.54;99985.24;1772469;79;20942;-56
2021/12/13 05:19:32;;;;;;;49.37;27.30;;;;;;;2.04;87.41;99980.77;1782270;78;21791;-57
2021/12/13 05:21:59;;;;;;;48.50;26.60;;;;;;;2.00;87.33;99986.14;1783055;79;21039;-56
2021/12/13 05:24:30;;;;;;;47.33;24.50;;;;;;;1.97;87.38;99988.37;1811506;78;21091;-56
2021/12/13 05:27:04;;;;;;;49.70;26.17;;;;;;;1.95;87.46;99987.98;1779886;78;20938;-56
2021/12/13 05:29:34;;;;;;;48.93;24.20;;;;;;;1.93;87.41;99990.64;1779500;79;21405;-57
2021/12/13 05:32:06;;;;;;;45.93;24.17;;;;;;;1.92;87.41;99983.56;1784288;78;20903;-57
2021/12/13 05:34:47;;;;;;;42.80;23.20;;;;;;;1.93;87.43;99981.34;1786342;78;20906;-57
2021/12/13 05:37:13;;;;;;;46.90;23.57;;;;;;;1.96;87.45;99988.41;1777071;78;21344;-57
2021/12/13 05:40:05;;;;;;;42.80;24.50;;;;;;;1.97;87.49;99992.35;1808414;78;20902;-57
2021/12/13 05:42:42;;;;;;;40.60;21.70;;;;;;;2.00;87.49;99999.42;1809743;78;20910;-58
2021/12/13 05:45:14;;;;;;;44.03;24.10;;;;;;;2.01;87.36;99994.09;1769882;79;21053;-57
2021/12/13 05:48:02;;;;;;;47.13;24.53;;;;;;;2.03;87.44;100002.94;1774012;80;20962;-56
2021/12/13 05:50:37;;;;;;;41.93;22.90;;;;;;;2.05;87.41;100003.78;1749523;80;21833;-57
2021/12/13 05:53:14;;;;;;;40.60;23.37;;;;;;;2.06;87.36;99999.34;1771137;80;21352;-57
2021/12/13 05:56:02;;;;;;;42.37;22.30;;;;;;;2.04;87.27;100002.02;1802897;78;21463;-56
2021/12/13 05:58:44;;;;;;;44.37;21.67;;;;;;;2.03;87.18;100004.27;1805237;78;20879;-56
2021/12/13 06:01:27;;;;;;;45.57;21.97;;;;;;;2.02;87.13;100010.47;1781223;78;21387;-57
2021/12/13 06:04:13;;;;;;;40.30;19.87;;;;;;;2.03;87.16;100015.33;1780083;78;21056;-57
2021/12/13 06:06:52;;;;;;;37.30;20.23;;;;;;;2.03;87.10;100020.64;1806615;78;21680;-57
2021/12/13 06:09:46;;;;;;;38.03;19.47;;;;;;;2.03;87.08;100017.54;1788077;79;20937;-57
2021/12/13 06:12:18;;;;;;;39.23;19.97;;;;;;;2.08;87.15;100021.47;1731823;78;21031;-57
2021/12/13 06:14:45;;;;;;;43.10;21.77;;;;;;;2.08;87.01;100014.38;1777289;78;21052;-57
2021/12/13 06:19:57;;;;;;;35.10;19.37;;;;;;;2.13;87.01;100016.97;1867749;75;24003;-57
2021/12/13 06:22:27;;;;;;;29.47;18.13;;;;;;;2.06;86.92;100016.16;1832854;76;20976;-57
2021/12/13 06:24:58;;;;;;;35.13;17.83;;;;;;;2.06;86.83;100013.50;1838826;76;21655;-57
2021/12/13 06:27:46;;;;;;;32.37;15.77;;;;;;;2.07;86.78;100021.02;1839762;76;21541;-57
2021/12/13 06:30:31;;;;;;;34.20;16.87;;;;;;;2.06;86.67;100020.59;1830994;76;20945;-58
2021/12/13 06:33:06;;;;;;;;;;;;;;;2.04;86.61;100017.09;1842647;76;20968;-57
2021/12/13 06:35:56;;;;;;;28.27;14.45;;;;;;;2.05;86.65;100021.03;1840292;77;26316;-57
2021/12/13 06:38:49;;;;;;;23.57;13.93;;;;;;;2.07;86.57;100022.36;1836216;76;20937;-58
2021/12/13 06:41:29;;;;;;;25.60;14.00;;;;;;;2.08;86.49;100025.45;1834926;76;21052;-58
2021/12/13 06:44:21;;;;;;;32.50;16.17;;;;;;;2.08;86.41;100017.48;1836159;77;21278;-57
2021/12/13 06:46:59;;;;;;;28.23;15.57;;;;;;;2.06;86.28;100013.95;1834889;77;21053;-57
2021/12/13 06:49:32;;;;;;;29.83;16.97;;;;;;;2.05;86.26;100013.52;1829970;76;21040;-57
2021/12/13 06:52:21;;;;;;;29.43;15.83;;;;;;;2.03;86.22;100016.66;1835693;76;21052;-58
2021/12/13 06:55:04;;;;;;;28.00;14.43;;;;;;;2.03;86.17;100016.66;1837281;76;20964;-57
2021/12/13 06:57:38;;;;;;;23.97;13.00;;;;;;;2.03;86.11;100012.67;1836665;75;21115;-58
2021/12/13 07:00:21;;;;;;;21.83;12.23;;;;;;;2.04;86.10;100005.14;1831181;75;21434;-57
2021/12/13 07:02:59;;;;;;;27.20;12.97;;;;;;;2.03;86.11;99998.95;1844757;75;21298;-57
2021/12/13 07:05:37;;;;;;;18.50;9.70;;;;;;;2.05;86.09;99987.84;1830655;75;21040;-58
2021/12/13 07:08:10;;;;;;;26.13;12.67;;;;;;;2.09;85.98;99978.08;1838585;75;21017;-58
2021/12/13 07:10:48;;;;;;;19.33;11.90;;;;;;;2.09;85.91;99981.62;1837234;75;21592;-58
2021/12/13 07:13:28;;;;;;;25.70;13.47;;;;;;;2.10;85.93;99979.41;1835636;75;21032;-58
2021/12/13 07:16:03;;;;;;;25.13;13.77;;;;;;;2.08;85.76;99977.20;1835346;75;21083;-58
2021/12/13 07:18:52;;;;;;;22.13;13.78;;;;;;;2.02;85.54;99981.27;1837390;75;21067;-58
2021/12/13 07:21:31;;;;;;;22.83;13.20;;;;;;;1.98;85.69;99984.83;1846932;75;20921;-57
2021/12/13 07:24:13;;;;;;;21.73;12.33;;;;;;;1.96;85.68;99964.05;1842107;75;21500;-57
2021/12/13 07:26:55;;;;;;;22.57;11.87;;;;;;;1.93;85.67;99972.05;1836199;75;21385;-58
2021/12/13 07:29:29;;;;;;;20.10;11.37;;;;;;;1.90;85.54;99957.47;1835476;75;21463;-58
2021/12/13 07:32:24;;;;;;;22.60;11.90;;;;;;;1.81;85.56;99958.89;1827169;75;21075;-57
2021/12/13 07:34:55;;;;;;;21.75;12.25;;;;;;;1.80;85.83;99975.27;1834533;75;21052;-57
2021/12/13 07:37:56;;;;;;;22.80;13.30;;;;;;;1.84;86.02;99977.45;1834269;75;21017;-57
2021/12/13 07:43:23;;;;;;;27.03;14.43;;;;;;;1.92;85.96;99995.95;1775384;78;28428;-56
2021/12/13 07:46:09;;;;;;;22.30;11.97;;;;;;;1.86;85.90;99998.23;1731114;80;21053;-57
2021/12/13 07:48:49;;;;;;;24.03;12.87;;;;;;;1.87;85.87;99996.86;1731535;80;22770;-57
2021/12/13 07:51:29;;;;;;;20.93;11.10;;;;;;;1.89;85.79;100014.99;1740760;80;21068;-56
2021/12/13 07:55:28;;;;;;;20.23;11.37;;;;;;;1.97;85.81;100015.36;1791769;78;27138;-55
2021/12/13 07:57:56;;;;;;;24.77;13.27;;;;;;;1.95;85.86;100018.50;1735993;80;20886;-56
2021/12/13 08:00:37;;;;;;;25.43;13.50;;;;;;;1.98;85.82;100013.14;1742891;80;22321;-57
2021/12/13 08:03:10;;;;;;;23.13;14.10;;;;;;;2.00;85.71;100021.54;1738857;81;20925;-57
2021/12/13 08:05:42;;;;;;;22.60;13.40;;;;;;;2.01;85.63;100041.89;1738226;81;21415;-58
2021/12/13 08:08:16;;;;;;;21.67;12.93;;;;;;;2.00;85.60;100056.05;1735425;81;21103;-57
2021/12/13 08:10:43;;;;;;;22.93;11.80;;;;;;;2.01;85.55;100048.97;1735170;81;22659;-57
2021/12/13 08:13:15;;;;;;;18.77;11.07;;;;;;;2.01;85.51;100043.66;1734738;81;20965;-58
2021/12/13 08:16:04;;;;;;;17.60;11.10;;;;;;;2.01;85.55;100025.95;1734670;81;20903;-58
2021/12/13 08:18:40;;;;;;;20.47;11.60;;;;;;;2.05;85.57;100027.67;1737585;81;21434;-57
2021/12/13 08:21:23;;;;;;;20.53;11.40;;;;;;;2.11;85.61;100042.69;1731991;81;21124;-58
2021/12/13 08:23:59;;;;;;;21.97;11.15;;;;;;;2.15;85.56;100047.94;1736990;81;21399;-57
2021/12/13 08:26:39;;;;;;;28.98;14.35;;;;;;;2.17;85.45;100038.19;1737195;81;21081;-57
2021/12/13 08:29:27;;;;;;;23.90;13.83;;;;;;;2.18;85.29;100043.05;1732954;81;21113;-58
2021/12/13 08:31:56;;;;;;;23.13;13.23;;;;;;;2.18;85.21;100037.74;1702964;81;21077;-57
2021/12/13 08:34:30;;;;;;;22.90;14.10;;;;;;;2.15;85.13;100040.42;1703668;82;21073;-57
2021/12/13 08:36:57;;;;;;;22.27;14.43;;;;;;;2.13;85.11;100040.87;1671954;83;21061;-57
2021/12/13 08:39:33;;;;;;;24.30;12.23;;;;;;;2.14;85.10;100031.57;1700475;82;21795;-58
2021/12/13 08:42:09;;;;;;;23.60;12.27;;;;;;;2.15;85.12;100022.70;1692892;82;21061;-57
2021/12/13 08:44:41;;;;;;;24.53;11.90;;;;;;;2.16;85.17;100030.23;1699202;82;21100;-58
2021/12/13 08:47:14;;;;;;;22.43;12.93;;;;;;;2.19;85.09;100032.87;1686687;83;21517;-58
2021/12/13 08:49:56;;;;;;;22.13;12.70;;;;;;;2.21;85.11;100023.97;1685172;83;20946;-58
2021/12/13 08:52:27;;;;;;;26.50;14.90;;;;;;;2.23;85.13;100010.23;1688367;83;21114;-57
2021/12/13 08:54:59;;;;;;;25.97;15.57;;;;;;;2.27;85.09;100009.31;1681888;83;20946;-58
2021/12/13 08:57:46;;;;;;;25.43;15.47;;;;;;;2.27;84.99;100004.45;1679354;83;21337;-57
2021/12/13 09:00:24;;;;;;;23.33;13.73;;;;;;;2.28;84.88;99991.16;1653089;84;21185;-58
2021/12/13 09:03:15;;;;;;;27.90;14.33;;;;;;;2.25;84.80;99983.22;1676178;83;21002;-57
2021/12/13 09:05:56;;;;;;;25.33;13.07;;;;;;;2.22;84.72;99985.89;1679021;83;21318;-58
2021/12/13 09:08:37;;;;;;;21.53;11.90;;;;;;;2.22;84.75;99983.23;1655461;85;21180;-58
2021/12/13 09:11:35;;;;;;;20.97;12.17;;;;;;;2.21;84.67;99982.80;1719380;81;20904;-58
2021/12/13 09:14:14;;;;;;;21.37;13.57;;;;;;;2.21;84.64;99990.77;1716916;81;21288;-57
2021/12/13 09:17:06;;;;;;;25.67;14.80;;;;;;;2.21;84.64;99988.11;1718275;81;21112;-58
2021/12/13 09:19:31;;;;;;;27.77;14.83;;;;;;;2.24;84.67;99991.20;1714196;81;21067;-58
2021/12/13 09:22:17;;;;;;;23.93;15.17;;;;;;;2.26;84.62;99994.72;1717561;81;21070;-58
2021/12/13 09:24:52;;;;;;;28.23;16.67;;;;;;;2.27;84.57;99994.71;1717806;81;20899;-57
2021/12/13 09:27:44;;;;;;;33.27;16.07;;;;;;;2.26;84.55;100003.57;1652031;81;21081;-57
2021/12/13 09:30:33;;;;;;;27.37;14.63;;;;;;;2.28;84.54;100004.44;1711202;81;21022;-56
2021/12/13 09:33:17;;;;;;;23.80;13.67;;;;;;;2.30;84.50;99998.23;1716831;81;21090;-57
2021/12/13 09:35:53;;;;;;;28.30;16.75;;;;;;;2.32;84.55;99988.45;1717096;81;21046;-57
2021/12/13 09:38:55;;;;;;;29.27;16.53;;;;;;;2.36;84.52;99987.53;1723242;81;20915;-57
2021/12/13 09:41:27;;;;;;;32.90;17.47;;;;;;;2.37;84.46;99974.69;1719402;81;20966;-57
2021/12/13 09:44:16;;;;;;;35.33;17.43;;;;;;;2.37;84.30;99973.36;1716602;81;21054;-56
2021/12/13 09:47:06;;;;;;;33.07;19.07;;;;;;;2.32;84.27;99973.84;1714575;81;22674;-56
2021/12/13 09:49:45;;;;;;;33.10;19.17;;;;;;;2.25;84.20;99976.58;1714640;81;21085;-56
2021/12/13 09:52:36;;;;;;;32.97;16.67;;;;;;;2.22;84.20;99985.89;1720069;81;21452;-57
2021/12/13 09:55:11;;;;;;;35.73;17.03;;;;;;;2.16;84.19;100010.31;1722655;81;21119;-57
2021/12/13 09:58:04;;;;;;;32.00;18.23;;;;;;;2.14;84.30;100016.97;1725879;80;21073;-57
2021/12/13 10:01:01;;;;;;;30.87;17.43;;;;;;;2.14;84.33;100017.41;1725199;80;21101;-57
2021/12/13 10:04:03;;;;;;;30.53;17.50;;;;;;;2.14;84.32;100009.00;1725971;80;21322;-56
2021/12/13 10:06:35;;;;;;;30.20;16.63;;;;;;;2.15;84.41;100012.53;1733258;81;20991;-57
2021/12/13 10:09:16;;;;;;;30.03;17.13;;;;;;;2.18;84.48;100008.53;1732809;81;20891;-56
2021/12/13 10:11:54;;;;;;;29.47;15.93;;;;;;;2.21;84.47;99998.73;1729225;81;21433;-56
2021/12/13 10:14:26;;;;;;;34.47;17.77;;;;;;;2.22;84.38;99992.98;1724327;81;21254;-56
2021/12/13 10:16:54;;;;;;;29.73;18.43;;;;;;;2.21;84.30;99987.27;1733294;81;21488;-57
2021/12/13 10:19:38;;;;;;;35.33;20.43;;;;;;;2.19;84.26;99994.36;1729848;81;20918;-56
2021/12/13 10:22:06;;;;;;;35.87;17.90;;;;;;;2.17;84.27;99998.80;1731329;81;20973;-57
2021/12/13 10:24:42;;;;;;;36.87;20.23;;;;;;;2.14;84.28;99995.72;1733207;81;20970;-57
2021/12/13 10:27:11;;;;;;;33.00;17.57;;;;;;;2.13;84.28;100002.37;1728050;81;21793;-58
2021/12/13 10:29:38;;;;;;;39.83;18.80;;;;;;;2.12;84.33;100006.83;1728607;81;20969;-58
2021/12/13 10:32:10;;;;;;;37.70;16.83;;;;;;;2.11;84.34;100005.06;1731691;81;20914;-58
2021/12/13 10:34:41;;;;;;;29.43;18.17;;;;;;;2.12;84.44;100006.83;1729734;81;20953;-58
2021/12/13 10:37:20;;;;;;;35.07;18.30;;;;;;;2.15;84.55;100003.23;1732278;80;20955;-58
2021/12/13 10:39:53;;;;;;;36.83;18.80;;;;;;;2.18;84.58;100000.12;1732741;80;21914;-58
2021/12/13 10:42:29;;;;;;;43.27;21.53;;;;;;;2.19;84.53;99995.24;1734565;80;20910;-58
2021/12/13 10:44:56;;;;;;;36.93;19.33;;;;;;;2.21;84.53;99993.91;1734321;80;20980;-58
2021/12/13 10:47:28;;;;;;;42.03;20.80;;;;;;;2.22;84.46;99997.84;1734016;81;20958;-58
2021/12/13 10:49:54;;;;;;;35.80;20.70;;;;;;;2.20;84.43;99994.80;1730508;80;20874;-58
2021/12/13 10:52:28;;;;;;;39.20;19.20;;;;;;;2.18;84.43;99986.84;1732190;81;21753;-58
2021/12/13 10:54:57;;;;;;;36.97;18.80;;;;;;;2.19;84.46;99985.95;1729905;80;20978;-57
2021/12/13 10:57:29;;;;;;;35.83;17.63;;;;;;;2.16;84.46;99983.31;1722441;82;20922;-57
2021/12/13 10:59:55;;;;;;;31.90;17.13;;;;;;;2.17;84.51;99977.55;1723486;81;20930;-57
2021/12/13 11:02:30;;;;;;;30.90;15.47;;;;;;;2.20;84.55;99978.86;1720673;81;21396;-58
2021/12/13 11:05:07;;;;;;;39.45;20.20;;;;;;;2.22;84.58;99971.28;1726517;81;21104;-58
2021/12/13 11:07:34;;;;;;;33.53;18.10;;;;;;;2.24;84.57;99965.52;1723992;82;20989;-58
2021/12/13 11:10:02;;;;;;;33.47;18.87;;;;;;;2.25;84.40;99965.06;1717809;81;21115;-57
2021/12/13 11:12:36;;;;;;;32.87;19.83;;;;;;;2.22;84.45;99963.31;1719922;81;21089;-58
2021/12/13 11:15:08;;;;;;;36.37;20.93;;;;;;;2.20;84.47;99952.30;1719680;81;21099;-58
2021/12/13 11:17:36;;;;;;;34.63;18.90;;;;;;;2.20;84.58;99952.30;1689130;83;21067;-59
2021/12/13 11:20:16;;;;;;;38.83;19.60;;;;;;;2.21;84.63;99951.41;1721180;81;21523;-58
2021/12/13 11:22:44;;;;;;;30.90;17.23;;;;;;;2.19;84.49;99951.42;1719111;81;21586;-58
2021/12/13 11:25:21;;;;;;;27.33;16.03;;;;;;;2.19;84.67;99948.77;1719033;82;21545;-58
2021/12/13 11:27:48;;;;;;;33.00;17.23;;;;;;;2.22;84.75;99945.17;1725969;81;21233;-58
2021/12/13 11:30:20;;;;;;;30.80;17.77;;;;;;;2.26;84.71;99948.23;1723544;81;21101;-58
2021/12/13 11:33:02;;;;;;;35.87;19.00;;;;;;;2.28;84.70;99947.34;1718730;82;21578;-58
2021/12/13 11:36:03;;;;;;;31.83;20.03;;;;;;;2.29;84.67;99949.55;1725359;81;20906;-59
2021/12/13 11:39:02;;;;;;;35.10;19.87;;;;;;;2.31;84.62;99953.03;1724078;81;21038;-58
2021/12/13 11:42:09;;;;;;;34.63;18.13;;;;;;;2.26;84.45;99953.55;1719243;81;21124;-57
2021/12/13 11:45:00;;;;;;;29.83;16.17;;;;;;;2.23;84.60;99961.09;1719315;81;22096;-56
2021/12/13 11:47:52;;;;;;;24.77;15.57;;;;;;;2.24;84.65;99964.19;1723208;81;21069;-58
2021/12/13 11:50:42;;;;;;;28.97;15.97;;;;;;;2.26;84.65;99961.07;1722607;81;21039;-57
2021/12/13 11:53:40;;;;;;;36.37;17.57;;;;;;;2.30;84.64;99965.88;1659304;84;21105;-57
2021/12/13 11:56:17;;;;;;;43.23;20.00;;;;;;;2.34;84.62;99956.11;1724153;81;21104;-58
2021/12/13 11:59:40;;;;;;;33.13;18.30;;;;;;;2.37;84.58;99958.30;1726687;81;21118;-57
2021/12/13 12:02:35;;;;;;;30.67;18.43;;;;;;;2.39;84.52;99963.12;1720770;82;21029;-58
2021/12/13 12:05:40;;;;;;;29.27;18.62;;;;;;;2.40;84.52;99978.61;1722058;82;21443;-58
2021/12/13 12:08:57;;;;;;;31.00;18.53;;;;;;;2.40;84.50;99987.91;1717795;82;21163;-58
2021/12/13 12:12:00;;;;;;;34.57;18.90;;;;;;;2.37;84.38;99986.19;1722504;82;21070;-57
2021/12/13 12:14:29;;;;;;;27.43;15.87;;;;;;;2.34;84.35;99990.20;1717113;82;21399;-58
2021/12/13 12:16:58;;;;;;;22.83;15.07;;;;;;;2.33;84.26;99995.08;1722487;82;21168;-58
2021/12/13 12:19:31;;;;;;;29.93;15.47;;;;;;;2.33;84.23;99988.88;1724018;82;21607;-57
2021/12/13 12:22:13;;;;;;;29.60;16.67;;;;;;;2.33;84.18;99986.23;1720255;82;21069;-57
2021/12/13 12:24:43;;;;;;;35.13;19.60;;;;;;;2.34;84.17;99977.37;1689734;83;21113;-58